sensor_id;sensor_type;location;lat;lon;timestamp;noise_LAeq;noise_LA_min;noise_LA_max;noise_LA01;noise_LA95
66747;Laerm;53658;50.742;10.864;2023-03-01T00:01:50;51.82;50.99;52.71;;
66747;Laerm;53658;50.742;10.864;2023-03-01T00:04:16;51.95;50.96;52.88;;
66747;Laerm;53658;50.742;10.864;2023-03-01T00:06:43;52.17;50.97;53.19;;
66747;Laerm;53658;50.742;10.864;2023-03-01T00:09:12;52.39;51.36;53.34;;
66747;Laerm;53658;50.742;10.864;2023-03-01T00:11:38;52.48;51.50;53.41;;
66747;Laerm;53658;50.742;10.864;2023-03-01T00:14:04;52.68;51.72;53.53;;
66747;Laerm;53658;50.742;10.864;2023-03-01T00:16:42;52.86;51.82;53.85;;
66747;Laerm;53658;50.742;10.864;2023-03-01T00:19:17;52.89;51.85;53.82;;
66747;Laerm;53658;50.742;10.864;2023-03-01T00:21:43;52.89;51.85;53.82;;
66747;Laerm;53658;50.742;10.864;2023-03-01T00:24:11;52.91;51.96;53.76;;
66747;Laerm;53658;50.742;10.864;2023-03-01T00:26:37;52.92;51.62;53.90;;
66747;Laerm;53658;50.742;10.864;2023-03-01T00:29:03;53.06;52.08;53.99;;
66747;Laerm;53658;50.742;10.864;2023-03-01T00:31:31;53.28;52.26;54.24;;
66747;Laerm;53658;50.742;10.864;2023-03-01T00:34:01;53.43;52.21;54.28;;
66747;Laerm;53658;50.742;10.864;2023-03-01T00:36:33;53.48;52.43;54.28;;
66747;Laerm;53658;50.742;10.864;2023-03-01T00:39:00;53.45;52.42;54.41;;
66747;Laerm;53658;50.742;10.864;2023-03-01T00:41:27;53.50;52.41;54.57;;
66747;Laerm;53658;50.742;10.864;2023-03-01T00:43:54;53.60;52.63;54.45;;
66747;Laerm;53658;50.742;10.864;2023-03-01T00:46:23;53.65;52.60;54.56;;
66747;Laerm;53658;50.742;10.864;2023-03-01T00:48:50;53.69;52.72;54.60;;
66747;Laerm;53658;50.742;10.864;2023-03-01T00:51:19;53.71;52.55;54.61;;
66747;Laerm;53658;50.742;10.864;2023-03-01T00:53:46;53.75;52.76;54.76;;
66747;Laerm;53658;50.742;10.864;2023-03-01T00:56:14;53.80;52.79;54.68;;
66747;Laerm;53658;50.742;10.864;2023-03-01T00:58:41;53.80;52.93;54.62;;
66747;Laerm;53658;50.742;10.864;2023-03-01T01:01:14;53.83;52.90;54.71;;
66747;Laerm;53658;50.742;10.864;2023-03-01T01:03:51;53.78;52.61;54.73;;
66747;Laerm;53658;50.742;10.864;2023-03-01T01:06:30;53.78;52.91;54.69;;
66747;Laerm;53658;50.742;10.864;2023-03-01T01:08:58;53.83;52.72;54.64;;
66747;Laerm;53658;50.742;10.864;2023-03-01T01:11:27;53.86;52.80;54.78;;
66747;Laerm;53658;50.742;10.864;2023-03-01T01:13:53;53.86;52.95;54.81;;
66747;Laerm;53658;50.742;10.864;2023-03-01T01:16:22;53.92;52.97;54.85;;
66747;Laerm;53658;50.742;10.864;2023-03-01T01:18:49;53.91;52.79;55.01;;
66747;Laerm;53658;50.742;10.864;2023-03-01T01:21:18;53.94;52.80;54.93;;
66747;Laerm;53658;50.742;10.864;2023-03-01T01:23:45;53.96;52.89;54.89;;
66747;Laerm;53658;50.742;10.864;2023-03-01T01:26:22;54.01;52.88;54.85;;
66747;Laerm;53658;50.742;10.864;2023-03-01T01:28:49;54.07;53.06;55.04;;
66747;Laerm;53658;50.742;10.864;2023-03-01T01:31:15;54.11;53.09;55.02;;
66747;Laerm;53658;50.742;10.864;2023-03-01T01:33:42;54.11;53.14;55.05;;
66747;Laerm;53658;50.742;10.864;2023-03-01T01:36:08;54.11;53.13;54.89;;
66747;Laerm;53658;50.742;10.864;2023-03-01T01:38:37;54.12;53.12;55.19;;
66747;Laerm;53658;50.742;10.864;2023-03-01T01:41:03;54.12;53.15;54.99;;
66747;Laerm;53658;50.742;10.864;2023-03-01T01:43:35;54.10;53.27;55.02;;
66747;Laerm;53658;50.742;10.864;2023-03-01T01:46:47;54.06;53.07;54.91;;
66747;Laerm;53658;50.742;10.864;2023-03-01T01:48:59;54.01;52.92;54.91;;
66747;Laerm;53658;50.742;10.864;2023-03-01T01:51:32;53.99;53.04;54.89;;
66747;Laerm;53658;50.742;10.864;2023-03-01T01:54:14;53.99;53.04;54.92;;
66747;Laerm;53658;50.742;10.864;2023-03-01T01:56:47;54.01;52.96;54.84;;
66747;Laerm;53658;50.742;10.864;2023-03-01T01:59:15;53.94;52.97;54.83;;
66747;Laerm;53658;50.742;10.864;2023-03-01T02:01:43;53.91;52.96;54.90;;
66747;Laerm;53658;50.742;10.864;2023-03-01T02:04:09;53.89;52.79;54.68;;
66747;Laerm;53658;50.742;10.864;2023-03-01T02:07:03;53.83;52.74;54.83;;
66747;Laerm;53658;50.742;10.864;2023-03-01T02:09:33;53.72;52.59;54.58;;
66747;Laerm;53658;50.742;10.864;2023-03-01T02:12:02;53.65;52.57;54.54;;
66747;Laerm;53658;50.742;10.864;2023-03-01T02:14:28;53.56;52.57;54.42;;
66747;Laerm;53658;50.742;10.864;2023-03-01T02:16:54;53.51;52.53;54.40;;
66747;Laerm;53658;50.742;10.864;2023-03-01T02:22:06;53.38;52.61;54.43;;
66747;Laerm;53658;50.742;10.864;2023-03-01T02:27:18;53.34;52.21;54.29;;
66747;Laerm;53658;50.742;10.864;2023-03-01T02:29:48;53.24;52.23;54.15;;
66747;Laerm;53658;50.742;10.864;2023-03-01T02:32:17;53.49;52.38;54.51;;
66747;Laerm;53658;50.742;10.864;2023-03-01T02:34:53;53.62;52.69;54.58;;
66747;Laerm;53658;50.742;10.864;2023-03-01T02:37:21;53.49;52.53;54.44;;
66747;Laerm;53658;50.742;10.864;2023-03-01T02:39:56;53.27;52.31;54.27;;
66747;Laerm;53658;50.742;10.864;2023-03-01T02:42:32;53.05;52.03;54.02;;
66747;Laerm;53658;50.742;10.864;2023-03-01T02:45:01;52.89;51.85;53.77;;
66747;Laerm;53658;50.742;10.864;2023-03-01T02:47:27;52.76;51.87;53.82;;
66747;Laerm;53658;50.742;10.864;2023-03-01T02:49:53;52.75;51.73;53.70;;
66747;Laerm;53658;50.742;10.864;2023-03-01T02:52:38;52.43;51.23;53.45;;
66747;Laerm;53658;50.742;10.864;2023-03-01T02:55:14;52.22;51.28;53.24;;
66747;Laerm;53658;50.742;10.864;2023-03-01T02:57:45;51.99;51.01;53.08;;
66747;Laerm;53658;50.742;10.864;2023-03-01T03:00:14;51.86;50.92;52.88;;
66747;Laerm;53658;50.742;10.864;2023-03-01T03:02:47;51.59;50.39;52.45;;
66747;Laerm;53658;50.742;10.864;2023-03-01T03:05:21;51.37;50.18;52.54;;
66747;Laerm;53658;50.742;10.864;2023-03-01T03:07:50;51.44;50.39;52.57;;
66747;Laerm;53658;50.742;10.864;2023-03-01T03:10:26;51.27;50.34;52.15;;
66747;Laerm;53658;50.742;10.864;2023-03-01T03:12:57;51.13;50.10;52.22;;
66747;Laerm;53658;50.742;10.864;2023-03-01T03:15:25;50.89;49.83;51.82;;
66747;Laerm;53658;50.742;10.864;2023-03-01T03:17:52;50.70;49.72;51.64;;
66747;Laerm;53658;50.742;10.864;2023-03-01T03:20:21;50.63;49.67;51.63;;
66747;Laerm;53658;50.742;10.864;2023-03-01T03:22:52;50.53;49.40;51.59;;
66747;Laerm;53658;50.742;10.864;2023-03-01T03:25:19;50.58;49.32;51.43;;
66747;Laerm;53658;50.742;10.864;2023-03-01T03:27:47;50.46;49.44;51.50;;
66747;Laerm;53658;50.742;10.864;2023-03-01T03:30:17;50.39;49.14;51.27;;
66747;Laerm;53658;50.742;10.864;2023-03-01T03:32:46;50.22;49.30;51.08;;
66747;Laerm;53658;50.742;10.864;2023-03-01T03:35:22;50.19;49.19;51.11;;
66747;Laerm;53658;50.742;10.864;2023-03-01T03:37:51;50.11;49.04;51.03;;
66747;Laerm;53658;50.742;10.864;2023-03-01T03:40:39;50.09;49.10;50.99;;
66747;Laerm;53658;50.742;10.864;2023-03-01T03:43:08;49.99;49.03;50.85;;
66747;Laerm;53658;50.742;10.864;2023-03-01T03:45:36;50.04;48.96;50.97;;
66747;Laerm;53658;50.742;10.864;2023-03-01T03:48:05;50.05;49.07;50.99;;
66747;Laerm;53658;50.742;10.864;2023-03-01T03:50:32;50.10;49.15;51.03;;
66747;Laerm;53658;50.742;10.864;2023-03-01T03:53:01;50.07;48.99;51.03;;
66747;Laerm;53658;50.742;10.864;2023-03-01T03:55:27;49.96;48.64;50.89;;
66747;Laerm;53658;50.742;10.864;2023-03-01T03:58:00;49.93;48.61;50.84;;
66747;Laerm;53658;50.742;10.864;2023-03-01T04:00:43;49.97;48.90;50.86;;
66747;Laerm;53658;50.742;10.864;2023-03-01T04:03:11;50.01;49.03;50.98;;
66747;Laerm;53658;50.742;10.864;2023-03-01T04:05:39;50.04;48.91;50.97;;
66747;Laerm;53658;50.742;10.864;2023-03-01T04:08:05;50.10;49.00;51.01;;
66747;Laerm;53658;50.742;10.864;2023-03-01T04:10:41;50.11;49.14;50.96;;
66747;Laerm;53658;50.742;10.864;2023-03-01T04:13:11;50.09;48.99;51.09;;
66747;Laerm;53658;50.742;10.864;2023-03-01T04:15:38;50.08;48.90;51.00;;
66747;Laerm;53658;50.742;10.864;2023-03-01T04:18:05;50.07;49.08;50.92;;
66747;Laerm;53658;50.742;10.864;2023-03-01T04:20:33;50.00;49.04;50.96;;
66747;Laerm;53658;50.742;10.864;2023-03-01T04:28:28;49.96;48.95;50.89;;
66747;Laerm;53658;50.742;10.864;2023-03-01T04:30:57;49.85;48.80;50.85;;
66747;Laerm;53658;50.742;10.864;2023-03-01T04:33:25;49.77;48.52;50.73;;
66747;Laerm;53658;50.742;10.864;2023-03-01T04:35:51;49.99;48.84;50.94;;
66747;Laerm;53658;50.742;10.864;2023-03-01T04:38:18;49.99;48.91;50.83;;
66747;Laerm;53658;50.742;10.864;2023-03-01T04:40:44;49.94;48.83;51.20;;
66747;Laerm;53658;50.742;10.864;2023-03-01T04:43:12;49.84;48.60;50.80;;
66747;Laerm;53658;50.742;10.864;2023-03-01T04:45:41;49.94;48.84;50.96;;
66747;Laerm;53658;50.742;10.864;2023-03-01T04:48:08;50.04;49.11;50.93;;
66747;Laerm;53658;50.742;10.864;2023-03-01T04:50:34;50.03;48.83;50.95;;
66747;Laerm;53658;50.742;10.864;2023-03-01T04:53:00;49.95;48.87;50.81;;
66747;Laerm;53658;50.742;10.864;2023-03-01T04:55:27;49.92;48.99;50.86;;
66747;Laerm;53658;50.742;10.864;2023-03-01T04:57:54;49.89;48.88;50.77;;
66747;Laerm;53658;50.742;10.864;2023-03-01T05:00:20;49.94;48.90;50.88;;
66747;Laerm;53658;50.742;10.864;2023-03-01T05:02:53;49.87;48.90;50.78;;
66747;Laerm;53658;50.742;10.864;2023-03-01T05:05:33;49.84;48.61;50.88;;
66747;Laerm;53658;50.742;10.864;2023-03-01T05:08:02;49.89;48.74;50.82;;
66747;Laerm;53658;50.742;10.864;2023-03-01T05:10:30;49.87;48.81;50.78;;
66747;Laerm;53658;50.742;10.864;2023-03-01T05:12:58;49.76;48.45;50.75;;
66747;Laerm;53658;50.742;10.864;2023-03-01T05:15:26;49.78;48.70;50.75;;
66747;Laerm;53658;50.742;10.864;2023-03-01T05:17:55;49.80;48.70;50.67;;
66747;Laerm;53658;50.742;10.864;2023-03-01T05:20:24;49.67;48.70;50.68;;
66747;Laerm;53658;50.742;10.864;2023-03-01T05:22:58;49.63;48.49;50.54;;
66747;Laerm;53658;50.742;10.864;2023-03-01T05:25:26;49.68;48.52;50.51;;
66747;Laerm;53658;50.742;10.864;2023-03-01T05:27:52;49.64;48.55;50.59;;
66747;Laerm;53658;50.742;10.864;2023-03-01T05:30:18;49.60;48.46;50.65;;
66747;Laerm;53658;50.742;10.864;2023-03-01T05:32:47;49.56;48.29;50.59;;
66747;Laerm;53658;50.742;10.864;2023-03-01T05:35:16;49.53;48.45;50.55;;
66747;Laerm;53658;50.742;10.864;2023-03-01T05:37:46;49.44;48.13;50.31;;
66747;Laerm;53658;50.742;10.864;2023-03-01T05:40:15;49.31;47.98;50.16;;
66747;Laerm;53658;50.742;10.864;2023-03-01T05:42:52;49.45;48.15;50.40;;
66747;Laerm;53658;50.742;10.864;2023-03-01T05:45:20;49.52;48.39;50.78;;
66747;Laerm;53658;50.742;10.864;2023-03-01T05:47:48;49.60;48.36;50.57;;
66747;Laerm;53658;50.742;10.864;2023-03-01T05:50:17;49.60;48.57;50.49;;
66747;Laerm;53658;50.742;10.864;2023-03-01T05:52:50;49.68;48.42;50.69;;
66747;Laerm;53658;50.742;10.864;2023-03-01T05:55:19;49.73;48.63;50.64;;
66747;Laerm;53658;50.742;10.864;2023-03-01T05:57:46;49.72;48.64;50.61;;
66747;Laerm;53658;50.742;10.864;2023-03-01T06:00:13;49.64;48.42;50.59;;
66747;Laerm;53658;50.742;10.864;2023-03-01T06:02:40;49.54;48.28;50.65;;
66747;Laerm;53658;50.742;10.864;2023-03-01T06:05:09;49.56;48.49;50.65;;
66747;Laerm;53658;50.742;10.864;2023-03-01T06:07:35;49.56;48.15;50.61;;
66747;Laerm;53658;50.742;10.864;2023-03-01T06:10:02;49.59;48.26;50.57;;
66747;Laerm;53658;50.742;10.864;2023-03-01T06:12:32;49.59;48.26;50.83;;
66747;Laerm;53658;50.742;10.864;2023-03-01T06:14:59;49.59;48.40;50.52;;
66747;Laerm;53658;50.742;10.864;2023-03-01T06:17:25;49.64;48.58;50.56;;
66747;Laerm;53658;50.742;10.864;2023-03-01T06:19:51;49.69;48.51;50.70;;
66747;Laerm;53658;50.742;10.864;2023-03-01T06:22:17;49.69;48.51;50.63;;
66747;Laerm;53658;50.742;10.864;2023-03-01T06:24:43;49.71;48.64;50.63;;
66747;Laerm;53658;50.742;10.864;2023-03-01T06:27:09;49.77;48.51;50.89;;
66747;Laerm;53658;50.742;10.864;2023-03-01T06:29:35;49.87;48.73;51.07;;
66747;Laerm;53658;50.742;10.864;2023-03-01T06:32:02;49.87;48.66;50.88;;
66747;Laerm;53658;50.742;10.864;2023-03-01T06:34:28;49.93;48.81;50.91;;
66747;Laerm;53658;50.742;10.864;2023-03-01T06:36:54;49.99;48.95;50.93;;
66747;Laerm;53658;50.742;10.864;2023-03-01T06:39:20;49.98;49.02;51.03;;
66747;Laerm;53658;50.742;10.864;2023-03-01T06:41:46;50.03;48.94;50.94;;
66747;Laerm;53658;50.742;10.864;2023-03-01T06:44:12;50.14;49.04;51.19;;
66747;Laerm;53658;50.742;10.864;2023-03-01T06:46:39;50.21;49.08;51.05;;
66747;Laerm;53658;50.742;10.864;2023-03-01T06:49:04;50.24;49.07;51.12;;
66747;Laerm;53658;50.742;10.864;2023-03-01T06:51:36;50.28;49.21;51.26;;
66747;Laerm;53658;50.742;10.864;2023-03-01T06:54:03;50.30;49.28;51.34;;
66747;Laerm;53658;50.742;10.864;2023-03-01T06:56:30;50.34;49.40;51.23;;
66747;Laerm;53658;50.742;10.864;2023-03-01T06:58:56;50.37;49.40;51.38;;
66747;Laerm;53658;50.742;10.864;2023-03-01T07:01:22;50.53;49.59;51.47;;
66747;Laerm;53658;50.742;10.864;2023-03-01T07:03:48;50.57;49.30;51.48;;
66747;Laerm;53658;50.742;10.864;2023-03-01T07:06:14;50.65;49.66;51.70;;
66747;Laerm;53658;50.742;10.864;2023-03-01T07:08:40;50.70;49.43;51.79;;
66747;Laerm;53658;50.742;10.864;2023-03-01T07:11:06;50.85;49.88;51.84;;
66747;Laerm;53658;50.742;10.864;2023-03-01T07:13:32;51.07;49.94;52.00;;
66747;Laerm;53658;50.742;10.864;2023-03-01T07:15:58;51.23;50.17;52.09;;
66747;Laerm;53658;50.742;10.864;2023-03-01T07:18:24;51.39;50.45;52.42;;
66747;Laerm;53658;50.742;10.864;2023-03-01T07:20:50;51.60;50.59;52.61;;
66747;Laerm;53658;50.742;10.864;2023-03-01T07:23:16;51.78;50.77;52.61;;
66747;Laerm;53658;50.742;10.864;2023-03-01T07:25:42;52.02;50.79;52.94;;
66747;Laerm;53658;50.742;10.864;2023-03-01T07:28:08;52.13;51.22;53.23;;
66747;Laerm;53658;50.742;10.864;2023-03-01T07:30:33;52.23;51.19;53.10;;
66747;Laerm;53658;50.742;10.864;2023-03-01T07:32:59;52.48;51.27;53.67;;
66747;Laerm;53658;50.742;10.864;2023-03-01T07:35:26;52.96;51.79;54.08;;
66747;Laerm;53658;50.742;10.864;2023-03-01T07:37:53;53.34;52.14;54.35;;
66747;Laerm;53658;50.742;10.864;2023-03-01T07:40:19;53.57;52.66;54.54;;
66747;Laerm;53658;50.742;10.864;2023-03-01T07:42:45;53.78;52.59;54.60;;
66747;Laerm;53658;50.742;10.864;2023-03-01T07:45:11;54.01;52.91;54.95;;
66747;Laerm;53658;50.742;10.864;2023-03-01T07:47:39;54.16;53.05;55.00;;
66747;Laerm;53658;50.742;10.864;2023-03-01T07:50:05;54.16;53.23;55.04;;
66747;Laerm;53658;50.742;10.864;2023-03-01T07:52:31;54.14;53.16;55.11;;
66747;Laerm;53658;50.742;10.864;2023-03-01T07:54:57;53.92;52.61;54.99;;
66747;Laerm;53658;50.742;10.864;2023-03-01T07:57:23;52.41;50.58;53.99;;
66747;Laerm;53658;50.742;10.864;2023-03-01T07:59:49;50.96;49.24;52.26;;
66747;Laerm;53658;50.742;10.864;2023-03-01T08:02:15;47.90;42.16;50.61;;
66747;Laerm;53658;50.742;10.864;2023-03-01T08:04:41;40.11;34.31;43.77;;
66747;Laerm;53658;50.742;10.864;2023-03-01T08:07:08;37.99;33.90;40.96;;
66747;Laerm;53658;50.742;10.864;2023-03-01T08:09:35;38.29;34.69;41.03;;
66747;Laerm;53658;50.742;10.864;2023-03-01T08:12:02;38.10;34.31;42.71;;
66747;Laerm;53658;50.742;10.864;2023-03-01T08:14:31;37.98;33.55;40.43;;
66747;Laerm;53658;50.742;10.864;2023-03-01T08:16:57;38.07;34.69;41.61;;
66747;Laerm;53658;50.742;10.864;2023-03-01T08:19:23;37.99;34.31;40.43;;
66747;Laerm;53658;50.742;10.864;2023-03-01T08:21:49;38.30;35.36;40.71;;
66747;Laerm;53658;50.742;10.864;2023-03-01T08:24:15;38.28;35.04;40.89;;
66747;Laerm;53658;50.742;10.864;2023-03-01T08:26:41;38.42;35.04;40.71;;
66747;Laerm;53658;50.742;10.864;2023-03-01T08:29:07;38.50;35.66;40.71;;
66747;Laerm;53658;50.742;10.864;2023-03-01T08:31:35;38.47;35.94;40.89;;
66747;Laerm;53658;50.742;10.864;2023-03-01T08:34:07;38.53;35.66;40.62;;
66747;Laerm;53658;50.742;10.864;2023-03-01T08:36:40;38.57;35.31;40.71;;
66747;Laerm;53658;50.742;10.864;2023-03-01T08:39:08;38.61;35.66;40.80;;
66747;Laerm;53658;50.742;10.864;2023-03-01T08:41:34;38.63;35.66;40.80;;
66747;Laerm;53658;50.742;10.864;2023-03-01T08:44:00;38.67;35.66;40.89;;
66747;Laerm;53658;50.742;10.864;2023-03-01T08:46:27;38.68;35.66;40.89;;
66747;Laerm;53658;50.742;10.864;2023-03-01T08:48:53;38.70;36.20;41.22;;
66747;Laerm;53658;50.742;10.864;2023-03-01T08:51:20;38.69;35.36;40.89;;
66747;Laerm;53658;50.742;10.864;2023-03-01T08:53:47;38.76;35.94;40.98;;
66747;Laerm;53658;50.742;10.864;2023-03-01T08:56:14;38.83;36.20;41.06;;
66747;Laerm;53658;50.742;10.864;2023-03-01T08:58:43;38.91;35.36;40.98;;
66747;Laerm;53658;50.742;10.864;2023-03-01T09:01:11;39.01;36.45;41.22;;
66747;Laerm;53658;50.742;10.864;2023-03-01T09:03:38;39.09;36.69;41.14;;
66747;Laerm;53658;50.742;10.864;2023-03-01T09:06:06;39.12;36.45;41.06;;
66747;Laerm;53658;50.742;10.864;2023-03-01T09:08:38;39.49;37.12;41.46;;
66747;Laerm;53658;50.742;10.864;2023-03-01T09:11:07;39.68;37.12;41.46;;
66747;Laerm;53658;50.742;10.864;2023-03-01T09:13:34;39.89;37.52;41.53;;
66747;Laerm;53658;50.742;10.864;2023-03-01T09:16:05;39.98;38.37;41.53;;
66747;Laerm;53658;50.742;10.864;2023-03-01T09:18:32;39.93;38.21;41.61;;
66747;Laerm;53658;50.742;10.864;2023-03-01T09:21:07;39.88;37.88;41.46;;
66747;Laerm;53658;50.742;10.864;2023-03-01T09:23:39;39.77;37.70;41.30;;
66747;Laerm;53658;50.742;10.864;2023-03-01T09:26:10;39.97;38.05;41.38;;
66747;Laerm;53658;50.742;10.864;2023-03-01T09:28:37;39.98;37.52;41.68;;
66747;Laerm;53658;50.742;10.864;2023-03-01T09:31:04;39.86;37.70;41.61;;
66747;Laerm;53658;50.742;10.864;2023-03-01T09:33:32;40.13;38.21;41.61;;
66747;Laerm;53658;50.742;10.864;2023-03-01T09:36:04;40.23;38.52;42.22;;
66747;Laerm;53658;50.742;10.864;2023-03-01T09:38:31;40.29;38.05;41.96;;
66747;Laerm;53658;50.742;10.864;2023-03-01T09:40:57;40.35;38.05;41.75;;
66747;Laerm;53658;50.742;10.864;2023-03-01T09:46:13;40.37;38.21;41.82;;
66747;Laerm;53658;50.742;10.864;2023-03-01T09:48:57;40.39;38.21;41.89;;
66747;Laerm;53658;50.742;10.864;2023-03-01T09:51:34;40.35;38.37;41.82;;
66747;Laerm;53658;50.742;10.864;2023-03-01T09:54:04;40.36;38.37;41.96;;
66747;Laerm;53658;50.742;10.864;2023-03-01T09:59:07;40.29;38.21;41.89;;
66747;Laerm;53658;50.742;10.864;2023-03-01T10:02:20;40.27;38.37;41.89;;
66747;Laerm;53658;50.742;10.864;2023-03-01T10:04:52;40.05;37.88;41.68;;
66747;Laerm;53658;50.742;10.864;2023-03-01T10:07:43;39.75;37.88;41.38;;
66747;Laerm;53658;50.742;10.864;2023-03-01T10:10:25;39.69;37.52;41.61;;
66747;Laerm;53658;50.742;10.864;2023-03-01T10:12:53;39.67;37.32;41.38;;
66747;Laerm;53658;50.742;10.864;2023-03-01T10:15:38;40.08;37.88;41.61;;
66747;Laerm;53658;50.742;10.864;2023-03-01T10:18:18;40.23;38.21;41.89;;
66747;Laerm;53658;50.742;10.864;2023-03-01T10:20:57;40.08;37.88;41.75;;
66747;Laerm;53658;50.742;10.864;2023-03-01T10:23:25;39.86;37.88;41.61;;
66747;Laerm;53658;50.742;10.864;2023-03-01T10:29:04;40.08;37.88;41.53;;
66747;Laerm;53658;50.742;10.864;2023-03-01T10:36:48;40.09;37.52;41.89;;
66747;Laerm;53658;50.742;10.864;2023-03-01T10:39:21;40.14;37.70;41.75;;
66747;Laerm;53658;50.742;10.864;2023-03-01T10:42:03;39.98;37.88;41.89;;
66747;Laerm;53658;50.742;10.864;2023-03-01T10:47:04;39.82;38.05;41.53;;
66747;Laerm;53658;50.742;10.864;2023-03-01T10:49:30;39.83;37.70;41.30;;
66747;Laerm;53658;50.742;10.864;2023-03-01T10:52:17;40.04;38.05;41.68;;
66747;Laerm;53658;50.742;10.864;2023-03-01T10:54:52;40.11;38.05;41.61;;
66747;Laerm;53658;50.742;10.864;2023-03-01T10:57:32;40.19;38.21;41.68;;
66747;Laerm;53658;50.742;10.864;2023-03-01T11:05:26;40.24;38.05;41.75;;
66747;Laerm;53658;50.742;10.864;2023-03-01T11:07:58;40.23;38.67;41.68;;
66747;Laerm;53658;50.742;10.864;2023-03-01T11:10:35;40.34;38.37;42.35;;
66747;Laerm;53658;50.742;10.864;2023-03-01T11:15:40;40.38;38.21;41.96;;
66747;Laerm;53658;50.742;10.864;2023-03-01T11:18:20;40.38;38.21;42.03;;
66747;Laerm;53658;50.742;10.864;2023-03-01T11:20:46;40.38;38.52;42.03;;
66747;Laerm;53658;50.742;10.864;2023-03-01T11:23:15;40.39;38.21;43.86;;
66747;Laerm;53658;50.742;10.864;2023-03-01T11:25:51;40.39;38.37;42.09;;
66747;Laerm;53658;50.742;10.864;2023-03-01T11:28:20;40.40;38.05;41.82;;
66747;Laerm;53658;50.742;10.864;2023-03-01T11:30:59;40.38;38.05;41.96;;
66747;Laerm;53658;50.742;10.864;2023-03-01T11:38:43;40.36;38.21;42.16;;
66747;Laerm;53658;50.742;10.864;2023-03-01T11:41:16;40.33;38.37;41.96;;
66747;Laerm;53658;50.742;10.864;2023-03-01T11:44:18;40.05;38.21;41.75;;
66747;Laerm;53658;50.742;10.864;2023-03-01T11:49:52;39.37;36.91;41.38;;
66747;Laerm;53658;50.742;10.864;2023-03-01T11:52:48;39.30;36.91;41.75;;
66747;Laerm;53658;50.742;10.864;2023-03-01T11:58:20;39.15;36.77;41.61;;
66747;Laerm;53658;50.742;10.864;2023-03-01T12:00:55;39.05;36.69;41.14;;
66747;Laerm;53658;50.742;10.864;2023-03-01T12:06:37;39.07;35.94;41.38;;
66747;Laerm;53658;50.742;10.864;2023-03-01T12:17:32;39.07;36.45;40.89;;
66747;Laerm;53658;50.742;10.864;2023-03-01T12:25:58;39.07;36.45;40.98;;
66747;Laerm;53658;50.742;10.864;2023-03-01T12:28:51;39.11;36.45;42.16;;
66747;Laerm;53658;50.742;10.864;2023-03-01T12:31:33;39.08;36.20;41.61;;
66747;Laerm;53658;50.742;10.864;2023-03-01T12:34:25;39.09;36.20;42.98;;
66747;Laerm;53658;50.742;10.864;2023-03-01T12:36:57;38.85;35.94;41.06;;
66747;Laerm;53658;50.742;10.864;2023-03-01T12:39:49;38.97;35.94;41.53;;
66747;Laerm;53658;50.742;10.864;2023-03-01T12:45:26;38.83;36.20;40.89;;
66747;Laerm;53658;50.742;10.864;2023-03-01T12:50:54;39.05;36.20;42.03;;
66747;Laerm;53658;50.742;10.864;2023-03-01T12:53:27;39.06;35.94;41.22;;
66747;Laerm;53658;50.742;10.864;2023-03-01T12:56:00;38.94;36.45;41.14;;
66747;Laerm;53658;50.742;10.864;2023-03-01T12:58:33;38.95;36.20;41.06;;
66747;Laerm;53658;50.742;10.864;2023-03-01T13:01:02;38.91;36.45;41.06;;
66747;Laerm;53658;50.742;10.864;2023-03-01T13:06:15;39.01;36.45;42.16;;
66747;Laerm;53658;50.742;10.864;2023-03-01T13:09:01;39.00;36.45;41.53;;
66747;Laerm;53658;50.742;10.864;2023-03-01T13:11:30;39.00;35.66;41.75;;
66747;Laerm;53658;50.742;10.864;2023-03-01T13:16:53;39.20;35.94;42.65;;
66747;Laerm;53658;50.742;10.864;2023-03-01T13:19:21;38.86;36.20;41.06;;
66747;Laerm;53658;50.742;10.864;2023-03-01T13:21:49;38.86;36.20;41.22;;
66747;Laerm;53658;50.742;10.864;2023-03-01T13:24:39;38.85;36.10;41.06;;
66747;Laerm;53658;50.742;10.864;2023-03-01T13:29:54;38.91;36.20;41.06;;
66747;Laerm;53658;50.742;10.864;2023-03-01T13:32:25;38.93;36.45;41.61;;
66747;Laerm;53658;50.742;10.864;2023-03-01T13:37:37;38.94;35.94;41.06;;
66747;Laerm;53658;50.742;10.864;2023-03-01T13:42:54;39.03;36.45;41.46;;
66747;Laerm;53658;50.742;10.864;2023-03-01T13:45:40;38.91;35.94;40.98;;
66747;Laerm;53658;50.742;10.864;2023-03-01T13:48:27;38.88;36.45;41.22;;
66747;Laerm;53658;50.742;10.864;2023-03-01T13:51:12;38.90;36.20;40.89;;
66747;Laerm;53658;50.742;10.864;2023-03-01T13:53:43;38.90;35.94;41.22;;
66747;Laerm;53658;50.742;10.864;2023-03-01T13:56:25;39.10;35.94;42.16;;
66747;Laerm;53658;50.742;10.864;2023-03-01T13:59:18;39.07;36.45;41.68;;
66747;Laerm;53658;50.742;10.864;2023-03-01T14:01:44;39.08;36.69;41.75;;
66747;Laerm;53658;50.742;10.864;2023-03-01T14:04:31;39.01;36.69;41.06;;
66747;Laerm;53658;50.742;10.864;2023-03-01T14:07:18;39.09;36.20;41.46;;
66747;Laerm;53658;50.742;10.864;2023-03-01T14:09:48;39.05;36.91;40.89;;
66747;Laerm;53658;50.742;10.864;2023-03-01T14:15:19;39.18;36.69;41.30;;
66747;Laerm;53658;50.742;10.864;2023-03-01T14:20:33;39.21;36.91;41.06;;
66747;Laerm;53658;50.742;10.864;2023-03-01T14:23:13;39.40;36.69;41.30;;
66747;Laerm;53658;50.742;10.864;2023-03-01T14:25:52;39.49;37.32;41.46;;
66747;Laerm;53658;50.742;10.864;2023-03-01T14:28:28;39.67;37.70;41.53;;
66747;Laerm;53658;50.742;10.864;2023-03-01T14:30:58;39.70;37.32;41.55;;
66747;Laerm;53658;50.742;10.864;2023-03-01T14:35:59;39.67;37.32;41.33;;
66747;Laerm;53658;50.742;10.864;2023-03-01T14:38:40;39.56;37.52;41.38;;
66747;Laerm;53658;50.742;10.864;2023-03-01T14:41:16;39.72;37.53;41.30;;
66747;Laerm;53658;50.742;10.864;2023-03-01T14:43:53;39.81;38.05;41.46;;
66747;Laerm;53658;50.742;10.864;2023-03-01T14:46:38;39.81;37.88;41.46;;
66747;Laerm;53658;50.742;10.864;2023-03-01T14:49:13;39.97;38.05;41.61;;
66747;Laerm;53658;50.742;10.864;2023-03-01T14:51:44;39.83;37.70;41.53;;
66747;Laerm;53658;50.742;10.864;2023-03-01T14:54:25;39.66;37.52;41.30;;
66747;Laerm;53658;50.742;10.864;2023-03-01T14:56:54;39.65;37.70;41.53;;
66747;Laerm;53658;50.742;10.864;2023-03-01T14:59:23;39.70;37.70;41.48;;
66747;Laerm;53658;50.742;10.864;2023-03-01T15:01:56;39.69;37.70;41.46;;
66747;Laerm;53658;50.742;10.864;2023-03-01T15:04:24;39.64;37.12;41.22;;
66747;Laerm;53658;50.742;10.864;2023-03-01T15:06:53;39.57;37.32;41.30;;
66747;Laerm;53658;50.742;10.864;2023-03-01T15:09:21;39.54;37.53;41.30;;
66747;Laerm;53658;50.742;10.864;2023-03-01T15:11:48;39.48;37.52;41.06;;
66747;Laerm;53658;50.742;10.864;2023-03-01T15:16:52;39.32;36.91;41.89;;
66747;Laerm;53658;50.742;10.864;2023-03-01T15:19:19;39.26;36.91;41.46;;
66747;Laerm;53658;50.742;10.864;2023-03-01T15:21:49;39.18;36.91;41.75;;
66747;Laerm;53658;50.742;10.864;2023-03-01T15:24:25;39.12;36.45;40.98;;
66747;Laerm;53658;50.742;10.864;2023-03-01T15:27:00;39.10;36.45;41.14;;